Time;durP1;ratioP1;P1;durP2;ratioP2;P2;SDS_P1;SDS_P2;PMS_P1;PMS_P2;Temp;Humidity;BMP_temperature;BMP_pressure;BME280_temperature;BME280_humidity;BME280_pressure;Samples;Min_cycle;Max_cycle;Signal;HPM_P1;HPM_P2
2022/03/25 00:01:07;;;;;;;15.20;6.73;;;;;;;11.14;28.82;95163.75;5056737;28;20558;-85
2022/03/25 00:03:33;;;;;;;18.47;6.93;;;;;;;11.39;28.78;95191.06;5074724;28;20159;-85
2022/03/25 00:05:58;;;;;;;21.87;7.17;;;;;;;11.28;29.07;95181.94;5074848;28;20219;-86
2022/03/25 00:08:24;;;;;;;13.77;6.80;;;;;;;11.13;29.26;95152.41;5056646;28;20536;-86
2022/03/25 00:10:49;;;;;;;14.77;6.90;;;;;;;11.04;29.58;95140.47;5056519;28;20749;-85
2022/03/25 00:13:15;;;;;;;16.67;6.23;;;;;;;11.33;28.94;95174.22;5056672;28;20166;-86
2022/03/25 00:15:41;;;;;;;12.27;6.40;;;;;;;11.25;29.03;95149.91;5074523;28;20233;-86
2022/03/25 00:18:06;;;;;;;18.07;6.83;;;;;;;11.26;28.92;95156.81;5074714;28;20535;-85
2022/03/25 00:20:32;;;;;;;10.80;5.33;;;;;;;11.33;28.71;95162.88;5074341;28;20171;-85
2022/03/25 00:22:57;;;;;;;10.87;5.83;;;;;;;11.21;28.81;95149.53;5074600;28;20155;-84
2022/03/25 00:25:23;;;;;;;10.33;5.57;;;;;;;11.29;29.21;95159.03;5074516;28;20596;-84
2022/03/25 00:27:48;;;;;;;10.07;4.80;;;;;;;11.23;29.00;95157.25;5073574;28;20641;-83
2022/03/25 00:30:14;;;;;;;13.37;5.53;;;;;;;11.41;29.07;95186.38;5073566;28;20167;-84
2022/03/25 00:32:40;;;;;;;13.43;5.83;;;;;;;10.98;28.95;95118.38;5055395;28;20178;-84
2022/03/25 00:35:06;;;;;;;12.53;5.90;;;;;;;11.13;29.63;95154.22;5073585;28;20229;-84
2022/03/25 00:37:32;;;;;;;8.53;5.00;;;;;;;10.86;29.75;95122.66;5081212;28;20179;-83
2022/03/25 00:39:58;;;;;;;15.53;6.70;;;;;;;10.95;29.85;95149.59;5074730;28;20247;-84
2022/03/25 00:42:25;;;;;;;25.13;6.67;;;;;;;10.85;29.55;95136.03;5055543;28;20170;-84
2022/03/25 00:44:50;;;;;;;26.00;18.03;;;;;;;10.57;30.13;95097.59;5072147;28;20155;-84
2022/03/25 00:47:16;;;;;;;30.53;20.70;;;;;;;10.67;30.31;95102.44;5073708;28;20182;-84
2022/03/25 00:49:42;;;;;;;24.93;20.13;;;;;;;11.30;30.18;95197.56;5081263;28;20165;-84
2022/03/25 00:52:08;;;;;;;25.33;15.23;;;;;;;11.28;30.21;95189.03;5074036;28;20162;-84
2022/03/25 00:54:36;;;;;;;19.67;12.77;;;;;;;11.24;30.19;95180.72;5073571;28;20194;-84
2022/03/25 00:57:02;;;;;;;25.60;11.87;;;;;;;11.24;29.90;95186.00;5055298;28;20166;-84
2022/03/25 00:59:28;;;;;;;17.43;12.63;;;;;;;10.91;30.06;95133.38;5073537;28;20151;-84
2022/03/25 01:01:53;;;;;;;20.43;12.23;;;;;;;10.98;30.13;95152.63;5073759;28;20150;-84
2022/03/25 01:04:18;;;;;;;17.03;11.10;;;;;;;10.62;30.49;95091.72;5073411;28;20257;-84
2022/03/25 01:06:46;;;;;;;17.87;9.93;;;;;;;10.50;30.61;95081.00;5073471;28;21022;-85
2022/03/25 01:09:11;;;;;;;16.53;8.83;;;;;;;10.65;30.74;95111.56;5073613;28;21094;-85
2022/03/25 01:11:36;;;;;;;14.87;7.53;;;;;;;10.39;31.04;95088.69;5073365;28;20166;-84
2022/03/25 01:14:03;;;;;;;10.50;5.57;;;;;;;10.90;29.96;95175.72;5055288;28;20248;-85
2022/03/25 01:16:29;;;;;;;9.60;5.63;;;;;;;10.44;30.59;95118.69;5055481;28;20217;-85
2022/03/25 01:18:54;;;;;;;10.43;5.67;;;;;;;10.41;30.88;95110.38;5073534;28;20186;-84
2022/03/25 01:21:20;;;;;;;12.43;5.60;;;;;;;10.35;30.67;95103.28;5055244;28;20660;-84
2022/03/25 01:23:48;;;;;;;12.00;5.70;;;;;;;10.46;30.48;95116.66;5073686;28;20150;-84
2022/03/25 01:26:13;;;;;;;13.30;5.67;;;;;;;10.80;30.65;95173.53;5072876;28;20213;-84
2022/03/25 01:28:39;;;;;;;7.70;5.03;;;;;;;10.37;30.84;95107.34;5072936;28;20174;-84
2022/03/25 01:31:06;;;;;;;14.47;5.57;;;;;;;10.28;31.14;95100.66;5073532;28;20186;-84
2022/03/25 01:33:31;;;;;;;29.10;5.07;;;;;;;10.59;30.91;95161.38;5072686;28;20627;-85
2022/03/25 01:35:57;;;;;;;11.83;5.57;;;;;;;10.72;31.01;95175.56;5072827;28;20186;-84
2022/03/25 01:38:25;;;;;;;8.27;5.00;;;;;;;10.26;30.61;95104.50;5073084;28;20243;-85
2022/03/25 01:40:51;;;;;;;9.43;4.93;;;;;;;10.33;30.82;95118.47;5072842;28;20174;-84
2022/03/25 01:43:17;;;;;;;19.73;5.53;;;;;;;10.14;30.68;95099.81;5072642;28;20631;-85
2022/03/25 01:45:42;;;;;;;11.80;5.57;;;;;;;10.14;31.14;95114.78;5054061;28;20174;-84
2022/03/25 01:48:12;;;;;;;7.77;5.03;;;;;;;10.56;31.25;95193.38;5071941;28;20185;-84
2022/03/25 01:50:40;;;;;;;10.83;5.77;;;;;;;10.08;31.00;95126.13;5072404;28;20232;-84
2022/03/25 01:53:18;;;;;;;10.50;5.83;;;;;;;10.30;30.73;95163.59;5063619;28;20210;-84
2022/03/25 01:55:51;;;;;;;15.00;6.33;;;;;;;10.37;30.90;95182.84;5071423;28;20190;-85
2022/03/25 01:58:17;;;;;;;11.87;5.83;;;;;;;10.39;30.78;95188.69;5072162;28;20181;-85
2022/03/25 02:00:42;;;;;;;14.60;6.03;;;;;;;10.03;31.05;95139.06;5054578;28;20174;-85
2022/03/25 02:03:08;;;;;;;11.57;5.63;;;;;;;9.81;31.04;95127.88;5072952;28;20162;-83
2022/03/25 02:05:35;;;;;;;14.33;6.60;;;;;;;9.94;31.22;95143.72;5063042;28;20644;-84
2022/03/25 02:08:01;;;;;;;13.23;6.57;;;;;;;10.29;31.60;95185.69;5053410;28;20527;-85
2022/03/25 02:10:27;;;;;;;16.23;6.23;;;;;;;10.27;31.28;95185.06;5071579;28;21027;-83
2022/03/25 02:12:52;;;;;;;12.80;6.80;;;;;;;10.18;30.79;95187.06;5071651;28;20162;-83
2022/03/25 02:15:18;;;;;;;14.77;6.10;;;;;;;9.65;31.17;95108.03;5054172;28;20218;-83
2022/03/25 02:17:43;;;;;;;12.43;5.40;;;;;;;10.02;31.81;95159.28;5072157;28;20254;-83
2022/03/25 02:20:10;;;;;;;10.17;5.50;;;;;;;9.77;31.64;95114.31;5072488;28;20197;-84
2022/03/25 02:22:40;;;;;;;13.63;5.93;;;;;;;10.12;31.12;95180.72;5054126;28;20601;-83
2022/03/25 02:25:09;;;;;;;12.10;5.70;;;;;;;10.05;31.36;95174.66;5071978;28;20667;-83
2022/03/25 02:27:36;;;;;;;11.83;5.80;;;;;;;9.51;31.60;95106.41;5053913;28;20184;-83
2022/03/25 02:30:03;;;;;;;11.83;5.60;;;;;;;9.75;32.20;95137.38;5071460;28;20178;-83
2022/03/25 02:32:29;;;;;;;20.10;9.03;;;;;;;9.53;31.54;95100.91;5071384;28;20558;-83
2022/03/25 02:34:54;;;;;;;21.00;9.53;;;;;;;9.53;32.38;95121.94;5071253;28;20225;-84
2022/03/25 02:37:20;;;;;;;20.20;9.30;;;;;;;9.35;32.59;95099.66;5071861;28;20170;-84
2022/03/25 02:39:46;;;;;;;21.87;8.60;;;;;;;9.60;32.37;95144.59;5072266;28;20182;-84
2022/03/25 02:42:11;;;;;;;24.13;10.10;;;;;;;9.30;32.67;95099.44;5053864;28;20182;-84
2022/03/25 02:44:37;;;;;;;23.20;8.43;;;;;;;9.67;33.15;95163.03;5072198;28;20154;-84
2022/03/25 02:47:02;;;;;;;19.50;8.50;;;;;;;9.25;33.08;95108.94;5053957;28;20159;-84
2022/03/25 02:49:28;;;;;;;15.47;7.57;;;;;;;9.08;33.48;95076.94;5072120;28;20222;-84
2022/03/25 02:51:53;;;;;;;18.40;8.17;;;;;;;9.16;33.33;95099.59;5071825;28;20174;-83
2022/03/25 02:54:19;;;;;;;18.13;8.87;;;;;;;8.98;33.72;95081.75;5051680;28;20207;-83
2022/03/25 02:56:44;;;;;;;18.60;9.27;;;;;;;9.06;33.28;95090.25;5071056;28;20171;-83
2022/03/25 02:59:10;;;;;;;18.10;8.97;;;;;;;9.46;33.22;95162.16;5071305;28;20636;-83
2022/03/25 03:01:35;;;;;;;14.27;7.80;;;;;;;9.26;33.86;95128.91;5071276;28;20178;-84
2022/03/25 03:04:01;;;;;;;15.90;7.80;;;;;;;8.97;33.16;95080.94;5053775;28;20697;-84
2022/03/25 03:06:26;;;;;;;16.13;8.27;;;;;;;9.19;33.42;95118.38;5055577;28;20266;-83
2022/03/25 03:08:52;;;;;;;15.87;8.90;;;;;;;8.96;33.91;95094.25;5075238;28;20640;-84
2022/03/25 03:11:17;;;;;;;16.20;7.07;;;;;;;9.20;33.72;95137.56;5071881;28;20534;-83
2022/03/25 03:13:44;;;;;;;14.83;6.90;;;;;;;8.97;33.56;95095.88;5072007;28;20533;-84
2022/03/25 03:16:10;;;;;;;14.20;6.43;;;;;;;9.42;33.66;95158.31;5071943;28;20185;-84
2022/03/25 03:18:36;;;;;;;14.87;6.73;;;;;;;9.42;33.61;95168.00;5055969;28;20621;-83
2022/03/25 03:21:01;;;;;;;17.63;8.37;;;;;;;8.94;32.78;95077.88;5077995;28;20150;-83
2022/03/25 03:23:27;;;;;;;13.17;6.73;;;;;;;9.38;32.93;95138.69;5057470;28;20273;-83
2022/03/25 03:25:52;;;;;;;12.97;7.53;;;;;;;9.48;32.70;95158.53;5075745;28;20209;-83
2022/03/25 03:28:17;;;;;;;14.87;7.47;;;;;;;9.13;32.78;95108.66;5075344;28;20678;-83
2022/03/25 03:30:43;;;;;;;13.73;7.00;;;;;;;9.54;32.54;95176.13;5075578;28;20174;-83
2022/03/25 03:33:09;;;;;;;18.43;7.60;;;;;;;9.58;32.25;95177.38;5075235;28;20166;-84
2022/03/25 03:35:35;;;;;;;21.83;8.93;;;;;;;9.11;32.39;95099.34;5073902;28;20699;-83
2022/03/25 03:38:01;;;;;;;19.07;8.17;;;;;;;9.55;32.68;95178.56;5056702;28;20628;-83
2022/03/25 03:40:26;;;;;;;13.07;6.63;;;;;;;9.55;32.48;95183.81;5056389;28;20178;-83
2022/03/25 03:42:52;;;;;;;14.17;8.00;;;;;;;9.33;32.82;95146.34;5074286;28;20678;-83
2022/03/25 03:45:17;;;;;;;15.83;8.17;;;;;;;9.43;32.71;95175.66;5074374;28;20304;-83
2022/03/25 03:47:44;;;;;;;15.60;8.27;;;;;;;9.45;32.74;95178.09;5074428;28;20652;-83
2022/03/25 03:50:13;;;;;;;19.50;8.87;;;;;;;9.34;32.97;95165.53;5056257;28;20565;-83
2022/03/25 03:52:40;;;;;;;19.60;10.10;;;;;;;8.75;33.10;95087.25;5074109;28;20184;-83
2022/03/25 03:55:07;;;;;;;16.50;8.83;;;;;;;9.20;33.30;95164.66;5056700;28;20206;-83
2022/03/25 03:57:34;;;;;;;22.90;8.83;;;;;;;9.07;33.13;95160.16;5056180;28;20194;-83
2022/03/25 04:00:00;;;;;;;19.47;8.47;;;;;;;9.13;33.47;95178.75;5073830;28;20898;-83
2022/03/25 04:02:26;;;;;;;21.53;9.50;;;;;;;8.71;33.78;95120.16;5074115;28;20174;-83
2022/03/25 04:04:51;;;;;;;16.37;8.23;;;;;;;8.81;33.82;95132.94;5073934;28;20651;-84
2022/03/25 04:07:17;;;;;;;26.77;8.93;;;;;;;8.86;33.45;95148.91;5074103;28;20181;-84
2022/03/25 04:09:42;;;;;;;15.13;7.90;;;;;;;9.05;33.84;95177.09;5074806;28;20699;-83
2022/03/25 04:12:14;;;;;;;19.13;8.70;;;;;;;8.69;33.81;95125.59;5056559;28;20170;-84
2022/03/25 04:14:40;;;;;;;30.80;11.07;;;;;;;8.69;33.71;95130.84;5074754;28;20268;-84
2022/03/25 04:17:06;;;;;;;14.90;7.97;;;;;;;8.74;33.78;95134.69;5074074;28;20214;-84
2022/03/25 04:19:32;;;;;;;17.47;8.33;;;;;;;8.74;33.69;95126.81;5074023;28;20178;-84
2022/03/25 04:21:58;;;;;;;17.93;9.13;;;;;;;8.75;33.89;95129.25;5059469;28;20190;-84
2022/03/25 04:24:23;;;;;;;19.97;8.27;;;;;;;8.53;33.63;95096.22;5074934;28;20201;-83
2022/03/25 04:26:49;;;;;;;16.07;8.93;;;;;;;8.94;33.94;95159.25;5073994;28;20174;-83
2022/03/25 04:29:14;;;;;;;30.07;9.47;;;;;;;8.81;33.62;95139.00;5074195;28;20174;-83
2022/03/25 04:31:40;;;;;;;18.60;9.47;;;;;;;8.68;33.38;95116.09;5073594;28;20162;-83
2022/03/25 04:34:05;;;;;;;22.33;9.53;;;;;;;8.67;33.12;95103.16;5074801;28;20727;-83
2022/03/25 04:36:31;;;;;;;20.33;9.73;;;;;;;8.64;33.35;95090.44;5074289;28;20162;-84
2022/03/25 04:38:56;;;;;;;18.17;9.87;;;;;;;8.69;33.84;95099.34;5073643;28;20187;-83
2022/03/25 04:41:23;;;;;;;20.10;10.90;;;;;;;9.13;34.21;95176.94;5072990;28;20178;-84
2022/03/25 04:43:50;;;;;;;21.37;10.40;;;;;;;9.27;33.79;95193.56;5054962;28;20178;-83
2022/03/25 04:46:16;;;;;;;24.00;11.50;;;;;;;9.41;33.80;95175.06;5070550;28;20253;-83
2022/03/25 04:48:42;;;;;;;31.10;12.73;;;;;;;9.65;33.49;95193.97;5073674;28;20304;-84
2022/03/25 04:51:07;;;;;;;40.00;19.13;;;;;;;9.37;33.96;95108.16;5073612;28;20167;-83
2022/03/25 04:53:34;;;;;;;56.17;33.73;;;;;;;9.73;34.83;95117.56;5073761;28;21142;-84
2022/03/25 04:56:00;;;;;;;35.60;25.67;;;;;;;10.11;32.98;95116.00;5074167;28;20262;-84
2022/03/25 04:58:25;;;;;;;33.50;27.57;;;;;;;10.45;32.83;95106.31;5073863;28;20174;-84
2022/03/25 05:00:51;;;;;;;33.30;29.63;;;;;;;11.11;32.06;95156.25;5073519;28;20182;-84
2022/03/25 05:03:17;;;;;;;38.53;23.33;;;;;;;11.58;30.77;95158.53;5072698;28;20548;-83
2022/03/25 05:05:43;;;;;;;33.17;23.93;;;;;;;11.97;30.24;95122.44;5072433;28;20265;-84
2022/03/25 05:08:09;;;;;;;39.03;20.10;;;;;;;12.76;29.22;95127.13;5072570;28;20199;-83
2022/03/25 05:10:35;;;;;;;26.27;21.20;;;;;;;13.81;27.98;95186.84;5055158;28;20171;-83
2022/03/25 05:13:01;;;;;;;25.67;14.37;;;;;;;14.59;27.31;95193.97;5073535;28;20193;-82
2022/03/25 05:15:26;;;;;;;31.87;23.67;;;;;;;15.13;26.96;95117.81;5073361;28;20561;-83
2022/03/25 05:17:52;;;;;;;27.23;22.35;;;;;;;16.45;25.41;95177.78;5055358;28;20167;-83
2022/03/25 05:20:20;;;;;;;31.00;28.10;;;;;;;17.67;23.39;95188.50;5073119;28;20261;-85
2022/03/25 05:22:47;;;;;;;30.05;18.17;;;;;;;18.59;21.78;95174.41;5073665;28;20242;-83
2022/03/25 05:25:13;;;;;;;22.48;16.17;;;;;;;19.47;21.79;95180.97;5072371;28;20282;-82
2022/03/25 05:27:53;;;;;;;22.42;11.32;;;;;;;20.68;20.39;95203.91;5071220;28;20702;-82
2022/03/25 05:30:21;;;;;;;21.92;10.95;;;;;;;21.50;19.74;95207.44;5052818;28;20261;-82
2022/03/25 05:32:47;;;;;;;20.58;9.98;;;;;;;22.03;18.98;95163.09;5072174;28;20166;-82
2022/03/25 05:35:12;;;;;;;21.70;9.68;;;;;;;22.83;18.23;95188.69;5072465;28;20229;-82
2022/03/25 05:37:38;;;;;;;21.08;9.18;;;;;;;23.57;17.49;95168.75;5073766;28;20903;-83
2022/03/25 05:40:06;;;;;;;18.73;9.13;;;;;;;24.09;16.79;95132.13;5072805;28;20701;-83
2022/03/25 05:42:33;;;;;;;23.83;10.10;;;;;;;24.69;16.79;95143.19;5070766;28;20179;-82
2022/03/25 05:44:58;;;;;;;24.38;9.15;;;;;;;25.55;16.36;95203.78;5072639;28;20155;-83
2022/03/25 05:47:27;;;;;;;17.20;8.27;;;;;;;26.19;15.75;95200.22;5054614;28;20558;-83
2022/03/25 05:49:52;;;;;;;17.63;8.57;;;;;;;26.45;14.51;95145.69;5072409;28;20261;-82
2022/03/25 05:52:18;;;;;;;22.50;9.77;;;;;;;27.54;14.40;95212.13;5071517;28;20250;-85
2022/03/25 05:54:44;;;;;;;19.30;10.15;;;;;;;27.97;14.15;95144.66;5053919;28;20186;-85
2022/03/25 05:57:09;;;;;;;21.55;10.32;;;;;;;28.83;13.44;95170.06;5052963;28;20173;-82
2022/03/25 05:59:35;;;;;;;15.60;9.07;;;;;;;29.53;13.41;95204.22;5071511;28;20631;-81
2022/03/25 06:02:00;;;;;;;16.00;9.13;;;;;;;30.25;13.30;95219.69;5053688;28;20633;-82
2022/03/25 06:04:26;;;;;;;24.92;9.70;;;;;;;30.37;12.62;95221.69;5053245;28;20179;-82
2022/03/25 06:06:51;;;;;;;20.48;9.15;;;;;;;30.13;12.77;95205.97;5053472;28;20170;-82
2022/03/25 06:09:17;;;;;;;18.42;8.18;;;;;;;30.02;11.75;95153.94;5071656;28;20181;-83
2022/03/25 06:11:42;;;;;;;12.93;7.72;;;;;;;30.73;12.58;95216.56;5071585;28;20183;-82
2022/03/25 06:14:08;;;;;;;10.40;6.90;;;;;;;31.03;11.51;95165.66;5071646;28;20651;-82
2022/03/25 06:16:33;;;;;;;12.35;7.85;;;;;;;31.68;11.00;95185.09;5072527;28;20178;-82
2022/03/25 06:18:59;;;;;;;18.88;8.32;;;;;;;31.71;11.01;95154.47;5072554;28;20654;-82
2022/03/25 06:21:25;;;;;;;19.25;8.65;;;;;;;32.08;11.06;95158.06;5072239;28;20174;-82
2022/03/25 06:23:51;;;;;;;39.38;9.40;;;;;;;32.28;10.45;95173.50;5071453;28;20924;-82
2022/03/25 06:26:16;;;;;;;15.48;7.45;;;;;;;32.33;10.20;95208.75;5072087;28;20184;-81
2022/03/25 06:28:42;;;;;;;18.13;7.60;;;;;;;32.29;10.24;95164.19;5054205;28;20173;-82
2022/03/25 06:31:08;;;;;;;17.92;8.52;;;;;;;32.53;10.41;95175.09;5071982;28;20158;-83
2022/03/25 06:33:34;;;;;;;22.42;8.55;;;;;;;31.89;10.14;95231.34;5053827;28;20613;-84
2022/03/25 06:36:00;;;;;;;24.45;9.35;;;;;;;30.57;10.83;95185.66;5072108;28;20616;-83
2022/03/25 06:38:26;;;;;;;21.65;8.60;;;;;;;30.46;11.07;95202.63;5071943;28;20227;-82
2022/03/25 06:40:51;;;;;;;14.70;8.13;;;;;;;30.13;10.95;95219.56;5070922;28;20174;-80
2022/03/25 06:43:17;;;;;;;21.42;8.32;;;;;;;28.20;11.79;95173.28;5052980;28;20678;-79
2022/03/25 06:45:42;;;;;;;15.45;8.30;;;;;;;28.17;12.07;95192.88;5070917;28;20710;-82
2022/03/25 06:48:08;;;;;;;13.85;7.35;;;;;;;27.72;12.64;95165.09;5071476;28;20196;-81
2022/03/25 06:50:34;;;;;;;15.70;8.63;;;;;;;28.19;12.29;95227.78;5072204;28;20591;-81
2022/03/25 06:53:01;;;;;;;11.48;8.40;;;;;;;28.08;12.86;95182.00;5055124;28;20577;-82
2022/03/25 06:55:28;;;;;;;16.35;9.13;;;;;;;27.99;12.64;95199.31;5074684;28;20151;-82
2022/03/25 06:57:54;;;;;;;16.63;8.43;;;;;;;27.06;13.04;95172.16;5075982;28;20166;-82
2022/03/25 07:00:21;;;;;;;12.50;8.38;;;;;;;26.51;13.93;95203.91;5076060;28;20224;-83
2022/03/25 07:02:47;;;;;;;17.50;9.95;;;;;;;26.06;14.11;95181.28;5076370;28;20189;-81
2022/03/25 07:05:13;;;;;;;20.48;10.68;;;;;;;25.44;13.65;95183.50;5075815;28;20665;-81
2022/03/25 07:07:40;;;;;;;14.20;9.13;;;;;;;24.70;15.04;95164.44;5075494;28;20198;-81
2022/03/25 07:10:10;;;;;;;15.27;8.32;;;;;;;25.06;15.50;95234.78;5073045;28;20174;-80
2022/03/25 07:12:41;;;;;;;17.95;8.80;;;;;;;24.81;14.83;95208.19;5073152;28;20265;-83
2022/03/25 07:15:08;;;;;;;12.18;8.68;;;;;;;24.72;15.09;95218.81;5072216;28;20174;-81
2022/03/25 07:17:35;;;;;;;18.45;9.13;;;;;;;24.56;15.82;95235.47;5055312;28;20174;-82
2022/03/25 07:20:01;;;;;;;13.30;7.57;;;;;;;24.23;15.74;95188.75;5073877;28;20261;-80
2022/03/25 07:22:26;;;;;;;16.55;8.13;;;;;;;23.52;16.13;95127.72;5073607;28;20681;-79
2022/03/25 07:24:52;;;;;;;12.70;8.98;;;;;;;23.77;16.47;95226.91;5073539;28;20281;-79
2022/03/25 07:27:17;;;;;;;14.77;8.73;;;;;;;23.40;16.43;95197.94;5071198;28;20185;-83
2022/03/25 07:29:43;;;;;;;20.98;9.65;;;;;;;22.94;17.07;95176.81;5073356;28;20220;-81
2022/03/25 07:32:08;;;;;;;12.25;8.57;;;;;;;23.23;17.41;95237.84;5073431;28;20261;-81
2022/03/25 07:34:36;;;;;;;12.93;8.60;;;;;;;23.18;17.45;95233.28;5071736;28;20254;-81
2022/03/25 07:37:03;;;;;;;16.13;9.20;;;;;;;23.07;17.71;95220.25;5071192;28;20182;-81
2022/03/25 07:39:30;;;;;;;17.48;8.70;;;;;;;23.09;18.30;95242.25;5055003;28;20183;-81
2022/03/25 07:41:55;;;;;;;19.48;8.73;;;;;;;22.87;17.23;95176.34;5073394;28;20259;-81
2022/03/25 07:44:21;;;;;;;14.77;8.00;;;;;;;23.26;17.26;95234.59;5073242;28;20949;-81
2022/03/25 07:46:47;;;;;;;15.57;8.57;;;;;;;23.18;17.67;95227.91;5071550;28;20186;-81
2022/03/25 07:49:12;;;;;;;17.30;9.70;;;;;;;22.82;17.23;95232.75;5053005;28;20186;-81
2022/03/25 07:51:38;;;;;;;18.77;9.52;;;;;;;22.12;17.88;95210.53;5071586;28;20564;-81
2022/03/25 07:54:03;;;;;;;15.88;9.55;;;;;;;21.88;18.25;95196.09;5069949;28;20638;-82
2022/03/25 07:56:29;;;;;;;20.05;8.75;;;;;;;21.77;18.67;95207.94;5071154;28;20190;-81
2022/03/25 07:58:54;;;;;;;15.65;8.32;;;;;;;21.34;18.19;95161.94;5072650;28;20198;-81
2022/03/25 08:01:20;;;;;;;13.70;9.05;;;;;;;21.80;18.17;95245.72;5071516;28;20186;-82
2022/03/25 08:03:45;;;;;;;25.60;9.35;;;;;;;21.74;18.70;95246.00;5071628;28;20205;-81
2022/03/25 08:06:14;;;;;;;16.60;8.38;;;;;;;21.71;18.50;95246.53;5071622;28;20174;-81
2022/03/25 08:08:40;;;;;;;30.92;8.93;;;;;;;21.69;18.57;95254.88;5071854;28;20173;-82
2022/03/25 08:11:06;;;;;;;19.58;7.85;;;;;;;21.57;18.72;95229.41;5067084;28;20174;-81
2022/03/25 08:13:32;;;;;;;26.02;9.60;;;;;;;21.03;18.29;95173.69;5070782;28;20244;-81
2022/03/25 08:15:57;;;;;;;19.67;8.82;;;;;;;21.21;19.00;95256.19;5073608;28;20170;-81
2022/03/25 08:18:24;;;;;;;25.50;8.52;;;;;;;21.05;19.04;95249.19;5073862;28;20166;-82
2022/03/25 08:20:50;;;;;;;17.67;9.23;;;;;;;20.57;19.06;95187.06;5073820;28;20170;-82
2022/03/25 08:28:53;;;;;;;20.27;9.23;;;;;;;19.45;20.13;95225.00;5070253;28;20247;-82
2022/03/25 08:31:19;;;;;;;22.67;9.20;;;;;;;19.58;20.96;95230.72;5071916;28;20174;-84
2022/03/25 08:33:45;;;;;;;16.58;8.10;;;;;;;20.02;20.80;95241.13;5053087;28;20772;-82
2022/03/25 08:36:11;;;;;;;13.95;8.63;;;;;;;20.04;19.84;95153.47;5072751;28;20189;-81
2022/03/25 08:38:37;;;;;;;24.50;8.25;;;;;;;20.56;19.18;95241.63;5055461;28;20171;-81
2022/03/25 08:41:02;;;;;;;27.13;8.73;;;;;;;20.50;19.24;95242.66;5073373;28;20208;-81
2022/03/25 08:43:28;;;;;;;55.55;10.32;;;;;;;20.28;19.36;95242.84;5073518;28;20557;-81
2022/03/25 08:45:54;;;;;;;23.77;8.50;;;;;;;19.91;19.97;95172.63;5073917;28;20182;-81
2022/03/25 08:48:20;;;;;;;24.08;7.65;;;;;;;20.32;20.94;95251.16;5071018;28;20181;-80
2022/03/25 08:50:45;;;;;;;15.32;8.52;;;;;;;20.04;19.74;95196.22;5072351;28;20174;-81
2022/03/25 08:53:12;;;;;;;17.90;7.57;;;;;;;20.41;20.46;95225.50;5073268;28;20185;-81
2022/03/25 08:55:37;;;;;;;24.67;8.98;;;;;;;20.42;20.25;95187.00;5072034;28;20206;-81
2022/03/25 08:58:03;;;;;;;21.70;9.02;;;;;;;20.32;19.51;95144.19;5072934;28;20205;-82
2022/03/25 09:00:29;;;;;;;20.58;7.78;;;;;;;20.63;19.84;95167.25;5073168;28;20166;-82
2022/03/25 09:02:54;;;;;;;21.27;8.00;;;;;;;21.13;18.98;95221.09;5073167;28;20178;-82
2022/03/25 09:05:20;;;;;;;15.18;7.30;;;;;;;21.27;19.49;95220.34;5073183;28;20227;-82
2022/03/25 09:07:45;;;;;;;21.38;7.88;;;;;;;20.94;19.34;95228.84;5072968;28;20170;-82
2022/03/25 09:10:16;;;;;;;22.05;8.45;;;;;;;20.88;20.20;95220.00;5054727;28;20182;-82
2022/03/25 09:12:44;;;;;;;17.42;8.43;;;;;;;20.89;19.54;95208.25;5072792;28;20158;-83
2022/03/25 09:15:12;;;;;;;39.33;8.65;;;;;;;20.34;19.91;95158.09;5054796;28;20535;-82
2022/03/25 09:17:38;;;;;;;19.45;6.85;;;;;;;20.54;19.31;95208.16;5071061;28;20178;-81
2022/03/25 09:20:06;;;;;;;29.38;8.10;;;;;;;20.48;19.41;95201.22;5072434;28;20235;-82
2022/03/25 09:22:34;;;;;;;22.65;8.00;;;;;;;20.61;20.84;95198.81;5057373;28;20166;-81
2022/03/25 09:25:01;;;;;;;22.38;7.20;;;;;;;20.68;20.59;95175.28;5072317;28;20187;-82
2022/03/25 09:27:27;;;;;;;12.40;7.25;;;;;;;20.59;19.59;95144.78;5054602;28;20178;-83
2022/03/25 09:29:53;;;;;;;13.45;7.00;;;;;;;20.48;19.56;95183.28;5072487;28;20174;-84
2022/03/25 09:32:18;;;;;;;13.93;7.10;;;;;;;20.12;19.87;95139.59;5055806;28;20659;-84
2022/03/25 09:37:28;;;;;;;15.30;6.72;;;;;;;20.52;19.38;95194.25;5072534;28;20173;-82
2022/03/25 09:39:54;;;;;;;34.78;8.20;;;;;;;20.34;20.25;95163.44;5071796;28;20560;-82
2022/03/25 09:42:20;;;;;;;15.15;7.10;;;;;;;20.10;19.59;95152.41;5071979;28;20170;-83
2022/03/25 09:44:48;;;;;;;21.42;6.53;;;;;;;19.88;19.46;95109.03;5072117;28;20645;-82
2022/03/25 09:47:16;;;;;;;12.35;6.00;;;;;;;20.02;19.69;95203.69;5072097;28;20178;-83
2022/03/25 09:49:42;;;;;;;27.00;7.70;;;;;;;19.40;19.25;95136.81;5070953;28;20193;-83
2022/03/25 09:52:08;;;;;;;15.15;6.55;;;;;;;19.72;20.61;95172.28;5054116;28;20257;-82
2022/03/25 09:54:34;;;;;;;16.98;6.40;;;;;;;19.28;20.89;95104.19;5053945;28;20616;-82
2022/03/25 09:57:00;;;;;;;16.30;6.10;;;;;;;19.74;20.10;95164.81;5071871;28;20173;-83
2022/03/25 09:59:26;;;;;;;13.70;6.53;;;;;;;19.82;20.41;95185.69;5071720;28;20198;-82
2022/03/25 10:01:52;;;;;;;13.00;6.32;;;;;;;19.26;19.06;95120.47;5054357;28;20193;-82
2022/03/25 10:04:36;;;;;;;12.13;7.40;;;;;;;19.32;19.36;95193.38;5072731;28;20566;-82
2022/03/25 10:07:14;;;;;;;9.85;6.15;;;;;;;19.19;20.23;95160.75;5072738;28;20161;-82
2022/03/25 10:09:40;;;;;;;13.57;5.95;;;;;;;19.27;19.64;95166.66;5072632;28;20158;-82
2022/03/25 10:12:26;;;;;;;10.68;5.63;;;;;;;19.31;19.46;95181.09;5071629;28;20568;-82
2022/03/25 10:15:12;;;;;;;11.55;5.25;;;;;;;19.27;20.16;95174.66;5071121;28;20158;-81
2022/03/25 10:17:54;;;;;;;10.43;5.97;;;;;;;19.45;19.87;95177.72;5070570;28;20190;-82
2022/03/25 10:20:22;;;;;;;12.10;5.95;;;;;;;19.43;20.15;95190.53;5071162;28;20644;-81
2022/03/25 10:23:04;;;;;;;10.57;5.88;;;;;;;19.34;19.02;95188.59;5052576;28;20178;-81
2022/03/25 10:25:40;;;;;;;10.98;5.50;;;;;;;19.22;19.67;95189.56;5069784;28;20730;-81
2022/03/25 10:28:19;;;;;;;11.27;6.00;;;;;;;19.07;20.47;95168.13;5069555;28;20261;-81
2022/03/25 10:30:50;;;;;;;18.50;6.32;;;;;;;18.99;20.57;95165.94;5069512;28;20261;-81
2022/03/25 10:33:32;;;;;;;14.15;6.30;;;;;;;19.22;20.60;95173.56;5070517;28;20250;-81
2022/03/25 10:36:12;;;;;;;23.55;5.25;;;;;;;19.19;20.63;95155.41;5071887;28;20178;-82
2022/03/25 10:38:54;;;;;;;9.40;5.25;;;;;;;19.37;20.70;95166.72;5072263;28;20197;-82
2022/03/25 10:41:36;;;;;;;9.18;5.47;;;;;;;19.05;19.56;95161.44;5053287;28;20174;-82
2022/03/25 10:44:03;;;;;;;19.75;5.97;;;;;;;19.04;20.93;95173.16;5053157;28;20182;-82
2022/03/25 10:46:42;;;;;;;11.80;5.53;;;;;;;19.14;19.54;95166.03;5071435;28;20178;-80
2022/03/25 10:49:13;;;;;;;10.65;5.43;;;;;;;18.91;19.79;95150.41;5071003;28;20193;-81
2022/03/25 10:51:41;;;;;;;11.05;5.00;;;;;;;18.97;20.11;95170.72;5069913;28;20170;-80
2022/03/25 10:54:11;;;;;;;7.47;5.03;;;;;;;18.99;19.26;95171.25;5071024;28;20167;-81
2022/03/25 10:56:49;;;;;;;11.88;5.88;;;;;;;18.91;19.92;95150.41;5071426;28;20620;-81
2022/03/25 10:59:30;;;;;;;10.15;5.18;;;;;;;18.98;20.76;95161.66;5070051;28;20188;-81
2022/03/25 11:02:04;;;;;;;9.38;5.40;;;;;;;19.05;19.44;95154.22;5071241;28;20534;-81
2022/03/25 11:04:29;;;;;;;8.88;4.75;;;;;;;19.08;19.78;95150.25;5070882;28;20569;-82
2022/03/25 11:06:56;;;;;;;13.93;5.50;;;;;;;18.75;20.23;95097.97;5071021;28;20170;-82
2022/03/25 11:09:23;;;;;;;12.35;4.97;;;;;;;19.08;19.68;95137.72;5071075;28;20174;-81
2022/03/25 11:11:49;;;;;;;19.92;5.05;;;;;;;18.68;19.66;95092.84;5066582;28;20182;-83
2022/03/25 11:14:16;;;;;;;8.30;5.13;;;;;;;18.43;19.47;95080.09;5070510;28;20174;-83
2022/03/25 11:16:56;;;;;;;8.35;5.13;;;;;;;18.87;19.92;95156.47;5071027;28;20239;-83
2022/03/25 11:19:22;;;;;;;13.00;5.15;;;;;;;18.47;19.12;95083.88;5070120;28;20175;-83
2022/03/25 11:21:49;;;;;;;8.27;4.50;;;;;;;18.81;20.30;95140.44;5070010;28;20658;-83
2022/03/25 11:24:20;;;;;;;11.55;4.95;;;;;;;18.80;19.54;95135.34;5068670;28;20220;-83
2022/03/25 11:26:49;;;;;;;8.10;4.32;;;;;;;18.75;19.74;95138.00;5067491;28;20728;-83
2022/03/25 11:29:17;;;;;;;14.85;5.40;;;;;;;18.34;20.20;95073.59;5066822;28;20182;-83
2022/03/25 11:32:03;;;;;;;8.48;4.97;;;;;;;18.73;20.04;95124.09;5067652;28;20174;-83
2022/03/25 11:34:28;;;;;;;8.75;4.82;;;;;;;18.63;21.00;95094.69;5051135;28;20711;-82